sensor_id;sensor_type;location;lat;lon;timestamp;pressure;altitude;pressure_sealevel;temperature;humidity
12951;BME280;6540;50.858;7.232;2023-09-19T00:00:21;51670.97;;;-142.34;30.48
12951;BME280;6540;50.858;7.232;2023-09-19T00:02:57;51648.78;;;-142.34;29.82
12951;BME280;6540;50.858;7.232;2023-09-19T00:05:34;51685.09;;;-142.34;30.21
12951;BME280;6540;50.858;7.232;2023-09-19T00:08:00;51652.81;;;-142.34;29.93
12951;BME280;6540;50.858;7.232;2023-09-19T00:10:29;51705.25;;;-142.34;29.97
12951;BME280;6540;50.858;7.232;2023-09-19T00:12:56;51689.13;;;-142.34;30.24
12951;BME280;6540;50.858;7.232;2023-09-19T00:15:26;51689.13;;;-142.34;30.20
12951;BME280;6540;50.858;7.232;2023-09-19T00:17:57;51689.13;;;-142.34;29.63
12951;BME280;6540;50.858;7.232;2023-09-19T00:20:22;51695.19;;;-142.34;30.25
12951;BME280;6540;50.858;7.232;2023-09-19T00:22:49;51664.91;;;-142.34;30.26
12951;BME280;6540;50.858;7.232;2023-09-19T00:25:19;51711.31;;;-142.34;30.53
12951;BME280;6540;50.858;7.232;2023-09-19T00:27:45;51685.09;;;-142.34;30.49
12951;BME280;6540;50.858;7.232;2023-09-19T00:30:17;51697.19;;;-142.34;30.50
12951;BME280;6540;50.858;7.232;2023-09-19T00:32:47;51664.91;;;-142.34;30.10
12951;BME280;6540;50.858;7.232;2023-09-19T00:35:14;51679.03;;;-142.34;30.50
12951;BME280;6540;50.858;7.232;2023-09-19T00:37:42;51687.09;;;-142.34;30.22
12951;BME280;6540;50.858;7.232;2023-09-19T00:40:09;51668.97;;;-142.34;30.13
12951;BME280;6540;50.858;7.232;2023-09-19T00:42:39;51677.03;;;-142.34;30.31
12951;BME280;6540;50.858;7.232;2023-09-19T00:45:06;51717.38;;;-142.34;29.85
12951;BME280;6540;50.858;7.232;2023-09-19T00:47:32;51681.06;;;-142.34;30.60
12951;BME280;6540;50.858;7.232;2023-09-19T00:49:57;51660.88;;;-142.34;29.62
12951;BME280;6540;50.858;7.232;2023-09-19T00:52:24;51683.06;;;-142.34;29.73
12951;BME280;6540;50.858;7.232;2023-09-19T00:54:50;51723.41;;;-142.34;29.97
12951;BME280;6540;50.858;7.232;2023-09-19T00:57:16;51689.13;;;-142.34;30.08
12951;BME280;6540;50.858;7.232;2023-09-19T00:59:42;51693.16;;;-142.34;30.33
12951;BME280;6540;50.858;7.232;2023-09-19T01:02:08;51685.09;;;-142.34;30.23
12951;BME280;6540;50.858;7.232;2023-09-19T01:04:34;51660.88;;;-142.34;29.98
12951;BME280;6540;50.858;7.232;2023-09-19T01:06:59;51689.13;;;-142.34;30.32
12951;BME280;6540;50.858;7.232;2023-09-19T01:09:25;51664.91;;;-142.34;30.10
12951;BME280;6540;50.858;7.232;2023-09-19T01:11:53;51703.25;;;-142.34;30.06
12951;BME280;6540;50.858;7.232;2023-09-19T01:14:32;51695.19;;;-142.34;29.97
12951;BME280;6540;50.858;7.232;2023-09-19T01:17:27;51697.19;;;-142.34;30.22
12951;BME280;6540;50.858;7.232;2023-09-19T01:20:21;51679.03;;;-142.34;29.16
12951;BME280;6540;50.858;7.232;2023-09-19T01:22:58;51660.88;;;-142.34;29.90
12951;BME280;6540;50.858;7.232;2023-09-19T01:28:45;51664.91;;;-142.34;29.85
12951;BME280;6540;50.858;7.232;2023-09-19T01:31:22;51689.13;;;-142.34;30.45
12951;BME280;6540;50.858;7.232;2023-09-19T01:33:55;51673.00;;;-142.34;29.83
12951;BME280;6540;50.858;7.232;2023-09-19T01:36:22;51681.06;;;-142.34;29.77
12951;BME280;6540;50.858;7.232;2023-09-19T01:38:50;51711.31;;;-142.34;30.04
12951;BME280;6540;50.858;7.232;2023-09-19T01:41:19;51693.16;;;-142.34;30.22
12951;BME280;6540;50.858;7.232;2023-09-19T01:43:49;51691.16;;;-142.34;30.19
12951;BME280;6540;50.858;7.232;2023-09-19T01:46:25;51715.34;;;-142.34;29.73
12951;BME280;6540;50.858;7.232;2023-09-19T01:55:00;51683.06;;;-142.34;29.82
12951;BME280;6540;50.858;7.232;2023-09-19T01:57:41;51681.06;;;-142.34;29.46
12951;BME280;6540;50.858;7.232;2023-09-19T02:00:10;51656.84;;;-142.34;30.12
12951;BME280;6540;50.858;7.232;2023-09-19T02:02:38;51677.03;;;-142.34;30.10
12951;BME280;6540;50.858;7.232;2023-09-19T02:05:05;51677.03;;;-142.34;30.03
12951;BME280;6540;50.858;7.232;2023-09-19T02:07:31;51701.22;;;-142.34;30.94
12951;BME280;6540;50.858;7.232;2023-09-19T02:09:58;51685.09;;;-142.34;30.43
12951;BME280;6540;50.858;7.232;2023-09-19T02:12:27;51717.38;;;-142.34;30.50
12951;BME280;6540;50.858;7.232;2023-09-19T02:14:52;51717.38;;;-142.34;31.11
12951;BME280;6540;50.858;7.232;2023-09-19T02:17:18;51701.22;;;-142.34;30.36
12951;BME280;6540;50.858;7.232;2023-09-19T02:19:44;51721.41;;;-142.34;31.57
12951;BME280;6540;50.858;7.232;2023-09-19T02:22:10;51765.78;;;-142.34;31.44
12951;BME280;6540;50.858;7.232;2023-09-19T02:24:36;51717.38;;;-142.34;31.29
12951;BME280;6540;50.858;7.232;2023-09-19T02:27:02;51749.66;;;-142.34;30.63
12951;BME280;6540;50.858;7.232;2023-09-19T02:29:31;51763.75;;;-142.34;31.15
12951;BME280;6540;50.858;7.232;2023-09-19T02:31:56;51785.94;;;-142.34;31.08
12951;BME280;6540;50.858;7.232;2023-09-19T02:34:22;51773.84;;;-142.34;31.48
12951;BME280;6540;50.858;7.232;2023-09-19T02:36:48;51790.00;;;-142.34;30.68
12951;BME280;6540;50.858;7.232;2023-09-19T02:39:14;51763.75;;;-142.34;30.70
12951;BME280;6540;50.858;7.232;2023-09-19T02:41:39;51747.63;;;-142.34;30.84
12951;BME280;6540;50.858;7.232;2023-09-19T02:44:07;51741.56;;;-142.34;30.19
12951;BME280;6540;50.858;7.232;2023-09-19T02:46:32;51753.69;;;-142.34;30.86
12951;BME280;6540;50.858;7.232;2023-09-19T02:48:58;51753.69;;;-142.34;30.76
12951;BME280;6540;50.858;7.232;2023-09-19T02:51:23;51769.81;;;-142.34;30.30
12951;BME280;6540;50.858;7.232;2023-09-19T02:53:50;51753.69;;;-142.34;29.19
12951;BME280;6540;50.858;7.232;2023-09-19T02:56:17;51737.53;;;-142.34;30.08
12951;BME280;6540;50.858;7.232;2023-09-19T02:58:43;51771.84;;;-142.34;30.76
12951;BME280;6540;50.858;7.232;2023-09-19T03:01:12;51721.41;;;-142.34;30.43
12951;BME280;6540;50.858;7.232;2023-09-19T03:03:37;51737.53;;;-142.34;30.28
12951;BME280;6540;50.858;7.232;2023-09-19T03:06:05;51745.59;;;-142.34;30.30
12951;BME280;6540;50.858;7.232;2023-09-19T03:08:31;51785.94;;;-142.34;30.77
12951;BME280;6540;50.858;7.232;2023-09-19T03:10:57;51737.53;;;-142.34;30.18
12951;BME280;6540;50.858;7.232;2023-09-19T03:13:23;51701.22;;;-142.34;29.38
12951;BME280;6540;50.858;7.232;2023-09-19T03:15:48;51757.72;;;-142.34;29.17
12951;BME280;6540;50.858;7.232;2023-09-19T03:18:15;51725.44;;;-142.34;29.53
12951;BME280;6540;50.858;7.232;2023-09-19T03:20:41;51729.47;;;-142.34;29.28
12951;BME280;6540;50.858;7.232;2023-09-19T03:23:06;51729.47;;;-142.34;29.52
12951;BME280;6540;50.858;7.232;2023-09-19T03:25:34;51697.19;;;-142.34;30.10
12951;BME280;6540;50.858;7.232;2023-09-19T03:28:01;51727.44;;;-142.34;29.40
12951;BME280;6540;50.858;7.232;2023-09-19T03:30:31;51757.72;;;-142.34;30.41
12951;BME280;6540;50.858;7.232;2023-09-19T03:32:56;51727.44;;;-142.34;29.65
12951;BME280;6540;50.858;7.232;2023-09-19T03:35:21;51727.44;;;-142.34;29.71
12951;BME280;6540;50.858;7.232;2023-09-19T03:37:47;51701.22;;;-142.34;28.77
12951;BME280;6540;50.858;7.232;2023-09-19T03:40:12;51733.50;;;-142.34;29.31
12951;BME280;6540;50.858;7.232;2023-09-19T03:42:42;51693.16;;;-142.34;29.39
12951;BME280;6540;50.858;7.232;2023-09-19T03:45:08;51701.22;;;-142.34;29.20
12951;BME280;6540;50.858;7.232;2023-09-19T03:47:37;51705.25;;;-142.34;29.14
12951;BME280;6540;50.858;7.232;2023-09-19T03:50:03;51693.16;;;-142.34;29.46
12951;BME280;6540;50.858;7.232;2023-09-19T03:52:28;51697.19;;;-142.34;28.57
12951;BME280;6540;50.858;7.232;2023-09-19T03:54:53;51701.22;;;-142.34;29.39
12951;BME280;6540;50.858;7.232;2023-09-19T03:57:19;51699.22;;;-142.34;29.29
12951;BME280;6540;50.858;7.232;2023-09-19T03:59:46;51681.06;;;-142.34;29.20
12951;BME280;6540;50.858;7.232;2023-09-19T04:02:12;51725.44;;;-142.34;29.23
12951;BME280;6540;50.858;7.232;2023-09-19T04:04:56;51709.31;;;-142.34;29.28
12951;BME280;6540;50.858;7.232;2023-09-19T04:07:21;51705.25;;;-142.34;29.38
12951;BME280;6540;50.858;7.232;2023-09-19T04:09:47;51701.22;;;-142.34;28.91
12951;BME280;6540;50.858;7.232;2023-09-19T04:12:14;51707.28;;;-142.34;28.76
12951;BME280;6540;50.858;7.232;2023-09-19T04:14:42;51717.38;;;-142.34;28.93
12951;BME280;6540;50.858;7.232;2023-09-19T04:17:07;51705.25;;;-142.34;29.20
12951;BME280;6540;50.858;7.232;2023-09-19T04:19:32;51707.28;;;-142.34;29.16
12951;BME280;6540;50.858;7.232;2023-09-19T04:21:58;51717.38;;;-142.34;29.04
12951;BME280;6540;50.858;7.232;2023-09-19T04:24:23;51666.94;;;-142.34;29.36
12951;BME280;6540;50.858;7.232;2023-09-19T04:26:48;51673.00;;;-142.34;29.65
12951;BME280;6540;50.858;7.232;2023-09-19T04:29:14;51693.16;;;-142.34;28.88
12951;BME280;6540;50.858;7.232;2023-09-19T04:31:40;51691.16;;;-142.34;29.18
12951;BME280;6540;50.858;7.232;2023-09-19T04:34:06;51713.34;;;-142.34;29.04
12951;BME280;6540;50.858;7.232;2023-09-19T04:36:31;51689.13;;;-142.34;29.21
12951;BME280;6540;50.858;7.232;2023-09-19T04:38:57;51727.44;;;-142.34;29.29
12951;BME280;6540;50.858;7.232;2023-09-19T04:41:22;51697.19;;;-142.34;29.46
12951;BME280;6540;50.858;7.232;2023-09-19T04:43:48;51691.16;;;-142.34;29.42
12951;BME280;6540;50.858;7.232;2023-09-19T04:46:16;51697.19;;;-142.34;28.88
12951;BME280;6540;50.858;7.232;2023-09-19T04:48:42;51697.19;;;-142.34;29.26
12951;BME280;6540;50.858;7.232;2023-09-19T04:51:08;51668.97;;;-142.34;29.12
12951;BME280;6540;50.858;7.232;2023-09-19T04:53:33;51711.31;;;-142.34;29.39
12951;BME280;6540;50.858;7.232;2023-09-19T04:55:58;51725.44;;;-142.34;29.82
12951;BME280;6540;50.858;7.232;2023-09-19T04:58:24;51685.09;;;-142.34;29.60
12951;BME280;6540;50.858;7.232;2023-09-19T05:00:49;51683.06;;;-142.34;29.15
12951;BME280;6540;50.858;7.232;2023-09-19T05:03:17;51699.22;;;-142.34;29.29
12951;BME280;6540;50.858;7.232;2023-09-19T05:05:42;51701.22;;;-142.34;29.29
12951;BME280;6540;50.858;7.232;2023-09-19T05:08:15;51705.25;;;-142.34;29.61
12951;BME280;6540;50.858;7.232;2023-09-19T05:10:43;51737.53;;;-142.34;29.37
12951;BME280;6540;50.858;7.232;2023-09-19T05:13:09;51703.25;;;-142.34;29.74
12951;BME280;6540;50.858;7.232;2023-09-19T05:15:37;51717.38;;;-142.34;29.46
12951;BME280;6540;50.858;7.232;2023-09-19T05:18:05;51725.44;;;-142.34;29.34
12951;BME280;6540;50.858;7.232;2023-09-19T05:20:34;51691.16;;;-142.34;29.05
12951;BME280;6540;50.858;7.232;2023-09-19T05:23:09;51725.44;;;-142.34;29.36
12951;BME280;6540;50.858;7.232;2023-09-19T05:25:37;51681.06;;;-142.34;29.45
12951;BME280;6540;50.858;7.232;2023-09-19T05:28:07;51699.22;;;-142.34;29.33
12951;BME280;6540;50.858;7.232;2023-09-19T05:30:34;51713.34;;;-142.34;29.40
12951;BME280;6540;50.858;7.232;2023-09-19T05:33:01;51695.19;;;-142.34;29.40
12951;BME280;6540;50.858;7.232;2023-09-19T05:35:27;51717.38;;;-142.34;29.42
12951;BME280;6540;50.858;7.232;2023-09-19T05:37:53;51705.25;;;-142.34;29.41
12951;BME280;6540;50.858;7.232;2023-09-19T05:40:20;51685.09;;;-142.34;29.40
12951;BME280;6540;50.858;7.232;2023-09-19T05:42:46;51713.34;;;-142.34;29.68
12951;BME280;6540;50.858;7.232;2023-09-19T05:45:12;51725.44;;;-142.34;29.68
12951;BME280;6540;50.858;7.232;2023-09-19T05:47:41;51697.19;;;-142.34;29.45
12951;BME280;6540;50.858;7.232;2023-09-19T05:50:09;51719.38;;;-142.34;29.42
12951;BME280;6540;50.858;7.232;2023-09-19T05:52:35;51705.25;;;-142.34;29.16
12951;BME280;6540;50.858;7.232;2023-09-19T05:55:05;51689.13;;;-142.34;29.30
12951;BME280;6540;50.858;7.232;2023-09-19T05:57:35;51717.38;;;-142.34;29.51
12951;BME280;6540;50.858;7.232;2023-09-19T06:00:03;51695.19;;;-142.34;29.48
12951;BME280;6540;50.858;7.232;2023-09-19T06:02:34;51707.28;;;-142.34;29.13
12951;BME280;6540;50.858;7.232;2023-09-19T06:05:00;51699.22;;;-142.34;29.29
12951;BME280;6540;50.858;7.232;2023-09-19T06:07:26;51721.41;;;-142.34;29.10
12951;BME280;6540;50.858;7.232;2023-09-19T06:09:53;51719.38;;;-142.34;29.29
12951;BME280;6540;50.858;7.232;2023-09-19T06:12:21;51749.66;;;-142.34;29.14
12951;BME280;6540;50.858;7.232;2023-09-19T06:14:46;51705.25;;;-142.34;29.24
12951;BME280;6540;50.858;7.232;2023-09-19T06:17:12;51689.13;;;-142.34;29.23
12951;BME280;6540;50.858;7.232;2023-09-19T06:19:38;51723.41;;;-142.34;29.07
12951;BME280;6540;50.858;7.232;2023-09-19T06:22:03;51668.97;;;-142.34;29.10
12951;BME280;6540;50.858;7.232;2023-09-19T06:24:29;51701.22;;;-142.34;29.11
12951;BME280;6540;50.858;7.232;2023-09-19T06:26:54;51666.94;;;-142.34;29.21
12951;BME280;6540;50.858;7.232;2023-09-19T06:29:20;51705.25;;;-142.34;29.08
12951;BME280;6540;50.858;7.232;2023-09-19T06:31:46;51713.34;;;-142.34;28.78
12951;BME280;6540;50.858;7.232;2023-09-19T06:34:12;51689.13;;;-142.34;28.75
12951;BME280;6540;50.858;7.232;2023-09-19T06:36:40;51693.16;;;-142.34;29.32
12951;BME280;6540;50.858;7.232;2023-09-19T06:39:07;51725.44;;;-142.34;28.54
12951;BME280;6540;50.858;7.232;2023-09-19T06:41:37;51673.00;;;-142.34;28.83
12951;BME280;6540;50.858;7.232;2023-09-19T06:44:03;51715.34;;;-142.34;28.86
12951;BME280;6540;50.858;7.232;2023-09-19T06:46:30;51679.03;;;-142.34;28.95
12951;BME280;6540;50.858;7.232;2023-09-19T06:48:58;51711.31;;;-142.34;29.01
12951;BME280;6540;50.858;7.232;2023-09-19T06:51:23;51737.53;;;-142.34;29.12
12951;BME280;6540;50.858;7.232;2023-09-19T06:53:48;51699.22;;;-142.34;28.91
12951;BME280;6540;50.858;7.232;2023-09-19T06:56:14;51697.19;;;-142.34;28.56
12951;BME280;6540;50.858;7.232;2023-09-19T06:58:39;51681.06;;;-142.34;28.83
12951;BME280;6540;50.858;7.232;2023-09-19T07:01:04;51727.44;;;-142.34;29.08
12951;BME280;6540;50.858;7.232;2023-09-19T07:03:30;51646.75;;;-142.34;28.32
12951;BME280;6540;50.858;7.232;2023-09-19T07:05:56;51723.41;;;-142.34;28.75
12951;BME280;6540;50.858;7.232;2023-09-19T07:08:21;51717.38;;;-142.34;28.83
12951;BME280;6540;50.858;7.232;2023-09-19T07:10:46;51701.22;;;-142.34;28.44
12951;BME280;6540;50.858;7.232;2023-09-19T07:13:18;51681.06;;;-142.34;28.56
12951;BME280;6540;50.858;7.232;2023-09-19T07:15:44;51677.03;;;-142.34;28.84
12951;BME280;6540;50.858;7.232;2023-09-19T07:18:13;51620.53;;;-142.34;27.79
12951;BME280;6540;50.858;7.232;2023-09-19T07:20:40;51719.38;;;-142.34;28.41
12951;BME280;6540;50.858;7.232;2023-09-19T07:23:11;51685.09;;;-142.34;28.38
12951;BME280;6540;50.858;7.232;2023-09-19T07:25:39;51685.09;;;-142.34;27.96
12951;BME280;6540;50.858;7.232;2023-09-19T07:28:04;51666.94;;;-142.34;28.24
12951;BME280;6540;50.858;7.232;2023-09-19T07:30:30;51707.28;;;-142.34;28.05
12951;BME280;6540;50.858;7.232;2023-09-19T07:33:00;51664.91;;;-142.34;27.73
12951;BME280;6540;50.858;7.232;2023-09-19T07:35:27;51664.91;;;-142.34;28.24
12951;BME280;6540;50.858;7.232;2023-09-19T07:37:53;51652.81;;;-142.34;28.61
12951;BME280;6540;50.858;7.232;2023-09-19T07:40:18;51689.13;;;-142.34;28.29
12951;BME280;6540;50.858;7.232;2023-09-19T07:42:45;51668.97;;;-142.34;27.91
12951;BME280;6540;50.858;7.232;2023-09-19T07:45:12;51685.09;;;-142.34;28.46
12951;BME280;6540;50.858;7.232;2023-09-19T07:47:43;51664.91;;;-142.34;28.85
12951;BME280;6540;50.858;7.232;2023-09-19T07:50:09;51681.06;;;-142.34;27.47
12951;BME280;6540;50.858;7.232;2023-09-19T07:52:35;51668.97;;;-142.34;28.26
12951;BME280;6540;50.858;7.232;2023-09-19T07:55:00;51677.03;;;-142.34;28.07
12951;BME280;6540;50.858;7.232;2023-09-19T07:57:26;51691.16;;;-142.34;28.12
12951;BME280;6540;50.858;7.232;2023-09-19T07:59:53;51677.03;;;-142.34;28.29
12951;BME280;6540;50.858;7.232;2023-09-19T08:02:19;51673.00;;;-142.34;28.59
12951;BME280;6540;50.858;7.232;2023-09-19T08:04:45;51689.13;;;-142.34;28.46
12951;BME280;6540;50.858;7.232;2023-09-19T08:07:14;51689.13;;;-142.34;27.90
12951;BME280;6540;50.858;7.232;2023-09-19T08:09:40;51687.09;;;-142.34;27.81
12951;BME280;6540;50.858;7.232;2023-09-19T08:12:06;51675.00;;;-142.34;27.77
12951;BME280;6540;50.858;7.232;2023-09-19T08:14:35;51673.00;;;-142.34;27.80
12951;BME280;6540;50.858;7.232;2023-09-19T08:17:01;51689.13;;;-142.34;28.27
12951;BME280;6540;50.858;7.232;2023-09-19T08:19:26;51693.16;;;-142.34;28.27
12951;BME280;6540;50.858;7.232;2023-09-19T08:21:59;51636.69;;;-142.34;27.29
12951;BME280;6540;50.858;7.232;2023-09-19T08:24:29;51640.72;;;-142.34;27.73
12951;BME280;6540;50.858;7.232;2023-09-19T08:26:55;51683.06;;;-142.34;27.98
12951;BME280;6540;50.858;7.232;2023-09-19T08:29:23;51685.09;;;-142.34;28.00
12951;BME280;6540;50.858;7.232;2023-09-19T08:31:56;51705.25;;;-142.34;27.69
12951;BME280;6540;50.858;7.232;2023-09-19T08:34:23;51658.88;;;-142.34;27.37
12951;BME280;6540;50.858;7.232;2023-09-19T08:36:50;51689.13;;;-142.34;28.90
12951;BME280;6540;50.858;7.232;2023-09-19T08:39:15;51689.13;;;-142.34;28.54
12951;BME280;6540;50.858;7.232;2023-09-19T08:41:42;51640.72;;;-142.34;27.75
12951;BME280;6540;50.858;7.232;2023-09-19T08:44:07;51681.06;;;-142.34;27.85
12951;BME280;6540;50.858;7.232;2023-09-19T08:46:34;51697.19;;;-142.34;29.20
12951;BME280;6540;50.858;7.232;2023-09-19T08:49:04;51677.03;;;-142.34;28.00
12951;BME280;6540;50.858;7.232;2023-09-19T08:51:40;51701.22;;;-142.34;27.56
12951;BME280;6540;50.858;7.232;2023-09-19T08:54:07;51675.00;;;-142.34;27.95
12951;BME280;6540;50.858;7.232;2023-09-19T08:56:33;51685.09;;;-142.34;28.22
12951;BME280;6540;50.858;7.232;2023-09-19T08:59:03;51691.16;;;-142.34;28.20
12951;BME280;6540;50.858;7.232;2023-09-19T09:01:31;51685.09;;;-142.34;28.36
12951;BME280;6540;50.858;7.232;2023-09-19T09:03:58;51670.97;;;-142.34;28.75
12951;BME280;6540;50.858;7.232;2023-09-19T09:06:25;51711.31;;;-142.34;29.08
12951;BME280;6540;50.858;7.232;2023-09-19T09:08:57;51727.44;;;-142.34;28.71
12951;BME280;6540;50.858;7.232;2023-09-19T09:14:48;51693.16;;;-142.34;28.17
12951;BME280;6540;50.858;7.232;2023-09-19T09:17:18;51701.22;;;-142.34;28.49
12951;BME280;6540;50.858;7.232;2023-09-19T09:19:46;51733.50;;;-142.34;29.07
12951;BME280;6540;50.858;7.232;2023-09-19T09:22:30;51705.25;;;-142.34;27.69
12951;BME280;6540;50.858;7.232;2023-09-19T09:24:58;51711.31;;;-142.34;28.21
12951;BME280;6540;50.858;7.232;2023-09-19T09:27:31;51677.03;;;-142.34;27.15
12951;BME280;6540;50.858;7.232;2023-09-19T09:30:03;51660.88;;;-142.34;27.56
12951;BME280;6540;50.858;7.232;2023-09-19T09:52:44;51681.06;;;-142.34;27.73
12951;BME280;6540;50.858;7.232;2023-09-19T09:55:09;51717.38;;;-142.34;27.93
12951;BME280;6540;50.858;7.232;2023-09-19T09:57:48;51656.84;;;-142.34;27.17
12951;BME280;6540;50.858;7.232;2023-09-19T10:00:36;51693.16;;;-142.34;27.58
12951;BME280;6540;50.858;7.232;2023-09-19T10:03:38;51717.38;;;-142.34;28.07
12951;BME280;6540;50.858;7.232;2023-09-19T10:06:14;51681.06;;;-142.34;26.77
12951;BME280;6540;50.858;7.232;2023-09-19T10:09:24;51652.81;;;-142.34;27.56
12951;BME280;6540;50.858;7.232;2023-09-19T10:12:15;51673.00;;;-142.34;27.24
12951;BME280;6540;50.858;7.232;2023-09-19T10:18:25;51705.25;;;-142.34;27.78
12951;BME280;6540;50.858;7.232;2023-09-19T10:21:04;51685.09;;;-142.34;27.21
12951;BME280;6540;50.858;7.232;2023-09-19T10:23:43;51656.84;;;-142.34;27.08
12951;BME280;6540;50.858;7.232;2023-09-19T10:26:17;51634.66;;;-142.34;27.34
12951;BME280;6540;50.858;7.232;2023-09-19T10:28:51;51656.84;;;-142.34;27.59
12951;BME280;6540;50.858;7.232;2023-09-19T10:31:21;51654.84;;;-142.34;26.78
12951;BME280;6540;50.858;7.232;2023-09-19T10:33:55;51660.88;;;-142.34;26.51
12951;BME280;6540;50.858;7.232;2023-09-19T10:43:11;51668.97;;;-142.34;26.95
12951;BME280;6540;50.858;7.232;2023-09-19T10:46:02;51650.81;;;-142.34;26.44
12951;BME280;6540;50.858;7.232;2023-09-19T10:48:29;51693.16;;;-142.34;26.73
12951;BME280;6540;50.858;7.232;2023-09-19T10:51:15;51658.88;;;-142.34;26.95
12951;BME280;6540;50.858;7.232;2023-09-19T10:53:54;51644.75;;;-142.34;26.71
12951;BME280;6540;50.858;7.232;2023-09-19T10:56:29;51624.56;;;-142.34;26.46
12951;BME280;6540;50.858;7.232;2023-09-19T10:59:13;51624.56;;;-142.34;25.52
12951;BME280;6540;50.858;7.232;2023-09-19T11:01:42;51668.97;;;-142.34;26.92
12951;BME280;6540;50.858;7.232;2023-09-19T11:07:12;51644.75;;;-142.34;25.80
12951;BME280;6540;50.858;7.232;2023-09-19T11:14:58;51648.78;;;-142.34;26.69
12951;BME280;6540;50.858;7.232;2023-09-19T11:30:33;51681.06;;;-142.34;26.43
12951;BME280;6540;50.858;7.232;2023-09-19T11:36:09;51666.94;;;-142.34;26.47
12951;BME280;6540;50.858;7.232;2023-09-19T11:46:27;51677.03;;;-142.34;26.60
12951;BME280;6540;50.858;7.232;2023-09-19T11:48:53;51650.81;;;-142.34;26.10
12951;BME280;6540;50.858;7.232;2023-09-19T11:51:23;51642.72;;;-142.34;25.84
12951;BME280;6540;50.858;7.232;2023-09-19T11:53:56;51636.69;;;-142.34;25.89
12951;BME280;6540;50.858;7.232;2023-09-19T11:56:25;51592.31;;;-142.34;25.32
12951;BME280;6540;50.858;7.232;2023-09-19T11:58:55;51628.63;;;-142.34;25.70
12951;BME280;6540;50.858;7.232;2023-09-19T12:01:33;51638.69;;;-142.34;25.51
12951;BME280;6540;50.858;7.232;2023-09-19T12:04:01;51568.09;;;-142.34;25.18
12951;BME280;6540;50.858;7.232;2023-09-19T12:06:28;51592.31;;;-142.34;25.65
12951;BME280;6540;50.858;7.232;2023-09-19T12:08:55;51602.38;;;-142.34;24.90
12951;BME280;6540;50.858;7.232;2023-09-19T12:11:22;51632.66;;;-142.34;25.76
12951;BME280;6540;50.858;7.232;2023-09-19T12:13:49;51656.84;;;-142.34;26.29
12951;BME280;6540;50.858;7.232;2023-09-19T12:16:16;51648.78;;;-142.34;25.95
12951;BME280;6540;50.858;7.232;2023-09-19T12:18:43;51612.47;;;-142.34;26.15
12951;BME280;6540;50.858;7.232;2023-09-19T12:21:30;51658.88;;;-142.34;25.29
12951;BME280;6540;50.858;7.232;2023-09-19T12:24:12;51630.63;;;-142.34;25.32
12951;BME280;6540;50.858;7.232;2023-09-19T12:26:44;51636.69;;;-142.34;25.18
12951;BME280;6540;50.858;7.232;2023-09-19T12:29:18;51624.56;;;-142.34;25.12
12951;BME280;6540;50.858;7.232;2023-09-19T12:31:51;51572.13;;;-142.34;24.47
12951;BME280;6540;50.858;7.232;2023-09-19T12:37:06;51632.66;;;-142.34;25.66
12951;BME280;6540;50.858;7.232;2023-09-19T12:43:08;51626.59;;;-142.34;25.49
12951;BME280;6540;50.858;7.232;2023-09-19T12:45:40;51600.38;;;-142.34;25.20
12951;BME280;6540;50.858;7.232;2023-09-19T12:48:26;51604.41;;;-142.34;24.97
12951;BME280;6540;50.858;7.232;2023-09-19T12:51:08;51608.44;;;-142.34;24.78
12951;BME280;6540;50.858;7.232;2023-09-19T12:53:45;51586.25;;;-142.34;24.90
12951;BME280;6540;50.858;7.232;2023-09-19T12:56:15;51632.66;;;-142.34;25.05
12951;BME280;6540;50.858;7.232;2023-09-19T12:58:53;51634.66;;;-142.34;25.07
12951;BME280;6540;50.858;7.232;2023-09-19T13:01:19;51648.78;;;-142.34;25.77
12951;BME280;6540;50.858;7.232;2023-09-19T13:03:45;51632.66;;;-142.34;25.61
12951;BME280;6540;50.858;7.232;2023-09-19T13:06:11;51612.47;;;-142.34;25.46
12951;BME280;6540;50.858;7.232;2023-09-19T13:08:49;51614.50;;;-142.34;24.79
12951;BME280;6540;50.858;7.232;2023-09-19T13:11:36;51620.53;;;-142.34;24.98
12951;BME280;6540;50.858;7.232;2023-09-19T13:22:02;51584.22;;;-142.34;24.96
12951;BME280;6540;50.858;7.232;2023-09-19T13:24:28;51586.25;;;-142.34;25.00
12951;BME280;6540;50.858;7.232;2023-09-19T13:26:58;51642.72;;;-142.34;25.31
12951;BME280;6540;50.858;7.232;2023-09-19T13:29:25;51624.56;;;-142.34;25.46
12951;BME280;6540;50.858;7.232;2023-09-19T13:31:52;51606.44;;;-142.34;25.10
12951;BME280;6540;50.858;7.232;2023-09-19T13:34:23;51622.56;;;-142.34;25.30
12951;BME280;6540;50.858;7.232;2023-09-19T13:36:54;51594.31;;;-142.34;24.81
12951;BME280;6540;50.858;7.232;2023-09-19T13:39:19;51632.66;;;-142.34;25.54
12951;BME280;6540;50.858;7.232;2023-09-19T13:41:46;51602.38;;;-142.34;24.99
12951;BME280;6540;50.858;7.232;2023-09-19T13:44:12;51628.63;;;-142.34;25.12
12951;BME280;6540;50.858;7.232;2023-09-19T13:46:38;51614.50;;;-142.34;25.75
12951;BME280;6540;50.858;7.232;2023-09-19T13:49:04;51630.63;;;-142.34;26.05
12951;BME280;6540;50.858;7.232;2023-09-19T13:51:31;51600.38;;;-142.34;24.83
12951;BME280;6540;50.858;7.232;2023-09-19T13:53:56;51624.56;;;-142.34;24.95
12951;BME280;6540;50.858;7.232;2023-09-19T13:56:22;51644.75;;;-142.34;25.52
12951;BME280;6540;50.858;7.232;2023-09-19T13:58:48;51638.69;;;-142.34;25.36
12951;BME280;6540;50.858;7.232;2023-09-19T14:01:13;51580.19;;;-142.34;24.80
12951;BME280;6540;50.858;7.232;2023-09-19T14:03:39;51608.44;;;-142.34;24.99
12951;BME280;6540;50.858;7.232;2023-09-19T14:06:05;51620.53;;;-142.34;25.54
12951;BME280;6540;50.858;7.232;2023-09-19T14:08:31;51628.63;;;-142.34;25.25
12951;BME280;6540;50.858;7.232;2023-09-19T14:11:11;51602.38;;;-142.34;25.05
12951;BME280;6540;50.858;7.232;2023-09-19T14:13:37;51642.72;;;-142.34;25.92
12951;BME280;6540;50.858;7.232;2023-09-19T14:16:04;51620.53;;;-142.34;25.32
12951;BME280;6540;50.858;7.232;2023-09-19T14:18:30;51638.69;;;-142.34;26.10
12951;BME280;6540;50.858;7.232;2023-09-19T14:20:56;51622.56;;;-142.34;25.99
12951;BME280;6540;50.858;7.232;2023-09-19T14:23:21;51608.44;;;-142.34;25.38
12951;BME280;6540;50.858;7.232;2023-09-19T14:25:48;51632.66;;;-142.34;25.76
12951;BME280;6540;50.858;7.232;2023-09-19T14:28:13;51650.81;;;-142.34;25.60